Sedalia, Indiana
Current Conditions -  °F | °C
As of 5:15 AM on Friday 21 Nov 2014 (Local Time) from KFKR Reporting Station
Clear Clear  
Wind Chill:   Ceiling: Unl
Heat Index:   Visibility: 10mi
Dew Point:   Wind: 0mph
Humidity: 87%   Direction: NA
Pressure: 30.41"   Gusts: NA
Location:  40.42°N, 86.51°W
Report Text: KFKR 211015Z AUTO 00000KT 10SM CLR M14/M15 A3041 RMK AO2 T11371155 TSNO
Loading
Personal Weather Stations






























Interactive Weather Map New forecast layout! Learn more

10-Day Weather Forecast

Advertisements
Track Severe Weather on mobile